createdAt,value
2018-08-19T00:04:22.933Z,71.19999999999999
2018-08-19T00:19:55.135Z,72.5
2018-08-19T00:35:14.999Z,73.045
2018-08-19T00:50:33.044Z,73.19999999999999
2018-08-19T01:05:51.663Z,74.4
2018-08-19T01:21:00.769Z,75.9
2018-08-19T01:36:29.085Z,76.3
2018-08-19T01:51:47.046Z,75.045
2018-08-19T02:07:06.000Z,75.05
2018-08-19T02:22:24.494Z,75.25
2018-08-19T02:37:37.992Z,75.4
2018-08-19T02:53:01.309Z,75.44999999999999
2018-08-19T03:08:19.629Z,75.4
2018-08-19T03:23:38.063Z,75.45
2018-08-19T03:38:43.466Z,75.44
2018-08-19T03:54:14.414Z,75.95
2018-08-19T04:09:31.990Z,76.05
2018-08-19T04:24:50.201Z,77.045
2018-08-19T04:40:08.406Z,77.4
2018-08-19T04:55:19.494Z,76.8
2018-08-19T05:10:44.722Z,76.9
2018-08-19T05:26:02.693Z,74.85
2018-08-19T05:41:21.098Z,72.3
2018-08-19T05:56:26.097Z,71.595
2018-08-19T06:11:57.750Z,69.795
2018-08-19T06:27:17.442Z,55.9
2018-08-19T06:42:37.526Z,47.75
2018-08-19T06:57:45.303Z,43.7
2018-08-19T07:13:16.224Z,43.75
2018-08-19T07:28:35.890Z,44.9
2018-08-19T07:43:56.779Z,45.845
2018-08-19T07:59:07.406Z,45.05
2018-08-19T08:14:36.799Z,44.599999999999994
2018-08-19T08:29:57.165Z,42.3
2018-08-19T08:45:18.109Z,40.45
2018-08-19T09:00:26.748Z,39.75
2018-08-19T09:16:00.550Z,36.2
2018-08-19T09:31:22.064Z,36.75
2018-08-19T09:46:44.355Z,33.495000000000005
2018-08-19T10:01:47.482Z,31.845000000000002
2018-08-19T10:17:23.291Z,30.15
2018-08-19T10:32:52.732Z,29.25
2018-08-19T10:48:16.517Z,27.45
2018-08-19T11:03:40.988Z,25.450000000000003
2018-08-19T11:18:45.717Z,23.8
2018-08-19T11:34:22.756Z,23.645
2018-08-19T11:49:55.897Z,22.5
2018-08-19T12:05:21.570Z,22.5
2018-08-19T12:20:47.330Z,21.6
2018-08-19T12:36:14.905Z,21.35
2018-08-19T12:51:25.509Z,20
2018-08-19T13:07:02.712Z,19.55
2018-08-19T13:22:37.309Z,18.2
2018-08-19T13:38:05.367Z,20.35
2018-08-19T13:53:29.926Z,21.9
2018-08-19T14:08:54.923Z,21.299999999999997
2018-08-19T14:24:06.924Z,21.244999999999997
2018-08-19T14:39:44.625Z,19.549999999999997
2018-08-19T14:55:13.900Z,18.95
2018-08-19T15:10:40.587Z,19.5
2018-08-19T15:26:07.503Z,19.2
2018-08-19T15:41:12.719Z,19.85
2018-08-19T15:56:50.010Z,20.9
2018-08-19T16:12:26.659Z,21.450000000000003
2018-08-19T16:27:52.041Z,21.5
2018-08-19T16:43:16.985Z,21.145
2018-08-19T16:58:42.041Z,21.15
2018-08-19T17:13:51.049Z,21.45
2018-08-19T17:29:27.272Z,21.545
2018-08-19T17:44:57.177Z,22.045
2018-08-19T18:00:21.411Z,23.55
2018-08-19T18:15:45.959Z,25.9
2018-08-19T18:31:08.122Z,27.55
2018-08-19T18:46:23.874Z,28.9
2018-08-19T19:01:53.787Z,30
2018-08-19T19:17:16.143Z,31.8
2018-08-19T19:32:37.328Z,34.15
2018-08-19T19:47:59.755Z,35.45
2018-08-19T20:03:13.776Z,38.195
2018-08-19T20:18:42.278Z,41.099999999999994
2018-08-19T20:34:02.988Z,42.650000000000006
2018-08-19T20:49:24.236Z,45.7
2018-08-19T21:04:44.602Z,46.45
2018-08-19T21:19:59.872Z,48.1
2018-08-19T21:35:26.094Z,49.099999999999994
2018-08-19T21:50:46.583Z,49.55
2018-08-19T22:06:07.022Z,50.4
2018-08-19T22:21:11.081Z,50.75
2018-08-19T22:36:43.531Z,51.15
2018-08-19T22:52:09.142Z,51.9
2018-08-19T23:07:28.176Z,52.25
2018-08-19T23:22:49.260Z,53.95
2018-08-19T23:37:52.725Z,54.2
2018-08-19T23:53:25.542Z,55.95
